Time;durP1;ratioP1;P1;durP2;ratioP2;P2;SDS_P1;SDS_P2;PMS_P1;PMS_P2;Temp;Humidity;BMP_temperature;BMP_pressure;BME280_temperature;BME280_humidity;BME280_pressure;Samples;Min_cycle;Max_cycle;Signal;HPM_P1;HPM_P2
2021/12/07 00:01:59;;;;;;;;;;;;;;;5.68;100.00;89533.09;5091320;28;19959;-78
2021/12/07 00:04:25;;;;;;;;;;;;;;;5.75;100.00;89532.63;5091860;28;19973;-78
2021/12/07 00:06:50;;;;;;;;;;;;;;;5.64;100.00;89518.97;5091430;28;19920;-78
2021/12/07 00:09:17;;;;;;;;;;;;;;;5.63;100.00;89526.13;5091257;28;19917;-78
2021/12/07 00:11:44;;;;;;;;;;;;;;;5.64;100.00;89527.66;5091777;28;19939;-78
2021/12/07 00:14:14;;;;;;;;;;;;;;;5.68;100.00;89517.25;5091721;28;19920;-78
2021/12/07 00:16:40;;;;;;;;;;;;;;;5.68;100.00;89525.97;5091049;28;19920;-78
2021/12/07 00:19:06;;;;;;;;;;;;;;;5.69;100.00;89524.13;5091466;28;19985;-78
2021/12/07 00:21:31;;;;;;;;;;;;;;;5.75;100.00;89528.13;5091558;28;20381;-78
2021/12/07 00:23:56;;;;;;;;;;;;;;;5.78;100.00;89526.72;5091200;28;19926;-78
2021/12/07 00:26:22;;;;;;;;;;;;;;;5.82;100.00;89517.09;5091506;28;19924;-78
2021/12/07 00:28:50;;;;;;;;;;;;;;;5.87;100.00;89514.28;5091681;28;20003;-79
2021/12/07 00:31:24;;;;;;;;;;;;;;;5.85;100.00;89522.53;5090825;28;19955;-78
2021/12/07 00:34:08;;;;;;;;;;;;;;;5.78;100.00;89516.16;5094511;28;19920;-78
2021/12/07 00:36:35;;;;;;;;;;;;;;;5.78;100.00;89514.31;5095577;28;20412;-78
2021/12/07 00:39:01;;;;;;;;;;;;;;;5.82;100.00;89503.88;5095459;28;19920;-78
2021/12/07 00:41:26;;;;;;;;;;;;;;;5.79;100.00;89517.72;5095610;28;20374;-78
2021/12/07 00:43:52;;;;;;;;;;;;;;;5.76;100.00;89516.47;5095349;28;19920;-78
2021/12/07 00:46:19;;;;;;;;;;;;;;;5.71;100.00;89514.00;5095078;28;20313;-78
2021/12/07 00:48:44;;;;;;;;;;;;;;;5.81;100.00;89510.25;5095479;28;19917;-78
2021/12/07 00:51:10;;;;;;;;;;;;;;;5.92;100.00;89520.19;5095388;28;19916;-78
2021/12/07 00:53:35;;;;;;;;;;;;;;;5.89;100.00;89527.94;5094972;28;19955;-78
2021/12/07 00:56:03;;;;;;;;;;;;;;;5.76;100.00;89528.91;5095149;28;19916;-78
2021/12/07 00:58:29;;;;;;;;;;;;;;;5.61;100.00;89515.09;5095316;28;19916;-78
2021/12/07 01:00:59;;;;;;;;;;;;;;;5.56;100.00;89522.41;5094812;28;19931;-78
2021/12/07 01:03:25;;;;;;;;;;;;;;;5.55;100.00;89523.50;5094947;28;19927;-77
2021/12/07 01:06:01;;;;;;;;;;;;;;;5.59;100.00;89525.19;5095197;28;19916;-78
2021/12/07 01:24:50;;;;;;;;;;;;;;;5.18;100.00;89556.53;5094843;28;19997;-78
2021/12/07 01:27:18;;;;;;;;;;;;;;;5.18;100.00;89559.16;5094677;28;19924;-78
2021/12/07 01:29:50;;;;;;;;;;;;;;;5.24;100.00;89568.50;5094282;28;19923;-77
2021/12/07 01:47:59;;;;;;;;;;;;;;;4.91;100.00;89539.94;5051817;28;19916;-77
2021/12/07 02:01:35;;;;;;;;;;;;;;;4.63;100.00;89504.41;5093313;28;19926;-77
2021/12/07 02:04:00;;;;;;;;;;;;;;;4.60;100.00;89494.47;5094024;28;20015;-77
2021/12/07 02:06:26;;;;;;;;;;;;;;;4.50;100.00;89493.69;5093879;28;19916;-77
2021/12/07 02:08:51;;;;;;;;;;;;;;;4.52;100.00;89503.91;5093495;28;19917;-77
2021/12/07 02:11:17;;;;;;;;;;;;;;;4.51;100.00;89503.13;5093502;28;19916;-77
2021/12/07 02:16:09;;;;;;;;;;;;;;;4.43;100.00;89511.78;5093569;28;19923;-77
2021/12/07 02:18:34;;;;;;;;;;;;;;;4.37;100.00;89513.00;5092820;28;19920;-77
2021/12/07 02:21:16;;;;;;;;;;;;;;;4.33;100.00;89512.06;5093217;28;20301;-77
2021/12/07 02:23:41;;;;;;;;;;;;;;;4.33;100.00;89519.19;5074662;28;19912;-77
2021/12/07 02:26:06;;;;;;;;;;;;;;;4.39;100.00;89529.25;5093519;28;19916;-78
2021/12/07 02:28:32;;;;;;;;;;;;;;;4.42;100.00;89517.38;5093451;28;19919;-78
2021/12/07 02:30:57;;;;;;;;;;;;;;;4.45;100.00;89509.63;5093323;28;19916;-78
2021/12/07 02:33:23;;;;;;;;;;;;;;;4.52;100.00;89503.91;5093409;28;19912;-78
2021/12/07 02:35:48;;;;;;;;;;;;;;;4.50;100.00;89496.31;5093071;28;19927;-78
2021/12/07 02:38:13;;;;;;;;;;;;;;;4.41;100.00;89503.41;5092842;28;19926;-78
2021/12/07 02:40:39;;;;;;;;;;;;;;;4.45;100.00;89488.56;5093608;28;19924;-77
2021/12/07 02:43:04;;;;;;;;;;;;;;;4.34;100.00;89481.25;5093298;28;19970;-77
2021/12/07 02:45:29;;;;;;;;;;;;;;;4.42;100.00;89472.63;5092872;28;19920;-77
2021/12/07 02:47:55;;;;;;;;;;;;;;;4.39;100.00;89473.19;5092782;28;19974;-77
2021/12/07 02:50:20;;;;;;;;;;;;;;;4.26;100.00;89468.84;5093120;28;19930;-77
2021/12/07 02:52:46;;;;;;;;;;;;;;;4.15;100.00;89463.09;5092502;28;19916;-77
2021/12/07 02:55:12;;;;;;;;;;;;;;;4.03;100.00;89463.66;5092545;28;19923;-77
2021/12/07 02:57:38;;;;;;;;;;;;;;;3.99;100.00;89464.59;5092804;28;20397;-77
2021/12/07 03:00:15;;;;;;;;;;;;;;;4.06;100.00;89464.91;5073945;28;19920;-77
2021/12/07 03:02:51;;;;;;;;;;;;;;;4.13;100.00;89466.03;5092663;28;20001;-77
2021/12/07 03:09:15;;;;;;;;;;;;;;;4.06;100.00;89460.44;5092527;28;19916;-78
2021/12/07 03:27:04;;;;;;;;;;;;;;;3.91;100.00;89468.72;5092372;28;20010;-77
2021/12/07 03:29:29;;;;;;;;;;;;;;;4.04;100.00;89469.72;5091930;28;19954;-78
2021/12/07 03:31:54;;;;;;;;;;;;;;;4.10;100.00;89465.84;5092312;28;19916;-77
2021/12/07 03:34:20;;;;;;;;;;;;;;;3.99;100.00;89464.59;5092298;28;19916;-77
2021/12/07 03:36:45;;;;;;;;;;;;;;;3.90;100.00;89457.44;5091715;28;19916;-77
2021/12/07 03:39:10;;;;;;;;;;;;;;;3.72;100.00;89455.81;5092429;28;19923;-77
2021/12/07 03:41:36;;;;;;;;;;;;;;;3.57;100.00;89458.84;5092401;28;19916;-77
2021/12/07 03:44:02;;;;;;;;;;;;;;;3.46;100.00;89457.53;5091702;28;20393;-78
2021/12/07 03:46:27;;;;;;;;;;;;;;;3.44;100.00;89449.94;5092068;28;19923;-76
2021/12/07 03:48:53;;;;;;;;;;;;;;;3.41;100.00;89458.44;5091642;28;19920;-78
2021/12/07 03:51:18;;;;;;;;;;;;;;;3.41;100.00;89450.56;5091624;28;19920;-78
2021/12/07 03:53:44;;;;;;;;;;;;;;;3.24;100.00;89438.09;5092465;28;19920;-77
2021/12/07 03:56:09;;;;;;;;;;;;;;;3.15;100.00;89439.13;5091970;28;19924;-77
2021/12/07 03:58:35;;;;;;;;;;;;;;;3.04;100.00;89430.72;5073284;28;19966;-77
2021/12/07 04:01:02;;;;;;;;;;;;;;;3.08;100.00;89426.41;5092245;28;20003;-77
2021/12/07 04:03:33;;;;;;;;;;;;;;;3.03;100.00;89434.44;5099342;28;19931;-77
2021/12/07 04:06:00;;;;;;;;;;;;;;;2.94;100.00;89437.00;5107847;28;20358;-76
2021/12/07 04:08:27;;;;;;;;;;;;;;;2.95;100.00;89429.88;5093750;28;20374;-77
2021/12/07 04:10:53;;;;;;;;;;;;;;;2.88;100.00;89442.66;5081750;28;19924;-70
2021/12/07 04:13:19;;;;;;;;;;;;;;;2.95;100.00;89443.00;5070434;28;19966;-75
2021/12/07 04:15:44;;;;;;;;;;;;;;;3.10;100.00;89453.16;5070927;28;19966;-71
2021/12/07 04:18:10;;;;;;;;;;;;;;;3.15;100.00;89453.03;5071039;28;20417;-74
2021/12/07 04:20:35;;;;;;;;;;;;;;;3.09;100.00;89446.34;5070761;28;19923;-70
2021/12/07 04:23:01;;;;;;;;;;;;;;;2.94;100.00;89450.13;5071151;28;19917;-70
2021/12/07 04:25:26;;;;;;;;;;;;;;;2.90;100.00;89446.53;5071254;28;19916;-70
2021/12/07 04:27:52;;;;;;;;;;;;;;;2.86;100.00;89450.06;5069403;28;19916;-69
2021/12/07 04:30:20;;;;;;;;;;;;;;;2.82;100.00;89442.00;5070937;28;19928;-69
2021/12/07 04:32:45;;;;;;;;;;;;;;;2.77;100.00;89446.59;5070614;28;19923;-69
2021/12/07 04:35:11;;;;;;;;;;;;;;;2.66;100.00;89452.06;5069158;28;19916;-70
2021/12/07 04:37:37;;;;;;;;;;;;;;;2.74;100.00;89447.19;5070635;28;19917;-69
2021/12/07 04:40:04;;;;;;;;;;;;;;;2.69;100.00;89441.00;5070155;28;19995;-69
2021/12/07 04:42:29;;;;;;;;;;;;;;;2.70;100.00;89445.16;5069861;28;20461;-69
2021/12/07 04:44:59;;;;;;;;;;;;;;;2.69;100.00;89430.50;5069497;28;20015;-69
2021/12/07 04:58:27;;;;;;;;;;;;;;;2.86;100.00;89429.84;5008114;28;19960;-69
2021/12/07 05:00:52;;;;;;;;;;;;;;;2.82;100.00;89428.88;5057579;28;20350;-70
2021/12/07 05:03:18;;;;;;;;;;;;;;;2.76;100.00;89429.28;5070235;28;19921;-69
2021/12/07 05:05:50;;;;;;;;;;;;;;;2.73;100.00;89425.41;5070086;28;19916;-70
2021/12/07 05:08:27;;;;;;;;;;;;;;;2.65;100.00;89419.03;5070711;28;19967;-70
2021/12/07 05:24:19;;;;;;;;;;;;;;;3.06;100.00;89419.91;5074545;28;20355;-69
2021/12/07 05:39:36;;;;;;;;;;;;;;;3.06;100.00;89418.06;5074201;28;19970;-70
2021/12/07 05:42:02;;;;;;;;;;;;;;;3.04;100.00;89414.19;5073432;28;20314;-69
2021/12/07 05:44:27;;;;;;;;;;;;;;;3.00;100.00;89414.03;5074072;28;19916;-69
2021/12/07 05:46:53;;;;;;;;;;;;;;;2.83;100.00;89413.88;5073796;28;19943;-69
2021/12/07 05:49:18;;;;;;;;;;;;;;;2.85;100.00;89414.38;5073559;28;20462;-69
2021/12/07 05:51:44;;;;;;;;;;;;;;;2.91;100.00;89411.31;5073758;28;19920;-69
2021/12/07 05:54:09;;;;;;;;;;;;;;;2.89;100.00;89410.09;5073641;28;19920;-69
2021/12/07 05:56:34;;;;;;;;;;;;;;;2.92;100.00;89405.00;5073334;28;19917;-70
2021/12/07 05:59:00;;;;;;;;;;;;;;;2.91;100.00;89402.69;5073833;28;19921;-70
2021/12/07 06:01:25;;;;;;;;;;;;;;;2.82;100.00;89391.34;5073592;28;20322;-70
2021/12/07 06:03:51;;;;;;;;;;;;;;;2.85;100.00;89393.38;5073336;28;20604;-69
2021/12/07 06:06:16;;;;;;;;;;;;;;;2.78;100.00;89391.16;5073394;28;20313;-69
2021/12/07 06:08:42;;;;;;;;;;;;;;;2.85;100.00;89393.38;5073589;28;20374;-70
2021/12/07 06:11:07;;;;;;;;;;;;;;;2.89;100.00;89386.44;5073094;28;20479;-70
2021/12/07 06:13:33;;;;;;;;;;;;;;;2.95;100.00;89383.38;5073526;28;20011;-69
2021/12/07 06:16:04;;;;;;;;;;;;;;;3.03;100.00;89384.53;5073683;28;19951;-69
2021/12/07 06:18:29;;;;;;;;;;;;;;;3.06;100.00;89375.25;5072624;28;19950;-70
2021/12/07 06:20:54;;;;;;;;;;;;;;;3.01;100.00;89386.69;5073403;28;19920;-70
2021/12/07 06:23:20;;;;;;;;;;;;;;;2.99;100.00;89386.94;5073389;28;19974;-69
2021/12/07 06:25:47;;;;;;;;;;;;;;;3.05;100.00;89378.97;5072901;28;20321;-70
2021/12/07 06:28:12;;;;;;;;;;;;;;;3.05;100.00;89385.00;5073296;28;19966;-70
2021/12/07 06:30:37;;;;;;;;;;;;;;;2.98;100.00;89376.75;5071883;28;19959;-70
2021/12/07 06:33:03;;;;;;;;;;;;;;;3.13;100.00;89379.00;5072995;28;19917;-70
2021/12/07 06:35:28;;;;;;;;;;;;;;;3.15;100.00;89394.47;5072922;28;19920;-69
2021/12/07 06:37:54;;;;;;;;;;;;;;;3.20;100.00;89387.25;5072967;28;19920;-69
2021/12/07 06:40:19;;;;;;;;;;;;;;;3.22;100.00;89385.09;5073056;28;19920;-69
2021/12/07 06:42:44;;;;;;;;;;;;;;;3.14;100.00;89385.81;5070860;28;19966;-69
2021/12/07 06:45:13;;;;;;;;;;;;;;;3.15;100.00;89387.34;5072957;28;19968;-70
2021/12/07 06:47:38;;;;;;;;;;;;;;;3.30;100.00;89392.22;5072778;28;19916;-69
2021/12/07 06:50:05;;;;;;;;;;;;;;;3.30;100.00;89388.81;5072377;28;19943;-69
2021/12/07 06:52:30;;;;;;;;;;;;;;;3.25;100.00;89391.59;5072800;28;19935;-70
2021/12/07 06:54:57;;;;;;;;;;;;;;;3.31;100.00;89393.00;5072337;28;19916;-70
2021/12/07 06:57:22;;;;;;;;;;;;;;;3.51;100.00;89391.72;5071975;28;19924;-70
2021/12/07 06:59:48;;;;;;;;;;;;;;;3.52;100.00;89388.00;5072619;28;19916;-69
2021/12/07 07:02:13;;;;;;;;;;;;;;;3.48;100.00;89384.44;5072449;28;19952;-69
2021/12/07 07:04:39;;;;;;;;;;;;;;;3.44;100.00;89388.72;5072081;28;20421;-70
2021/12/07 07:07:04;;;;;;;;;;;;;;;3.41;100.00;89387.47;5072290;28;19978;-70
2021/12/07 07:09:30;;;;;;;;;;;;;;;3.55;100.00;89388.16;5072267;28;19970;-69
2021/12/07 07:11:55;;;;;;;;;;;;;;;3.60;100.00;89387.25;5071961;28;19920;-69
2021/12/07 07:14:20;;;;;;;;;;;;;;;3.65;100.00;89387.13;5072374;28;19916;-69
2021/12/07 07:16:46;;;;;;;;;;;;;;;3.56;100.00;89389.72;5072106;28;19917;-70
2021/12/07 07:19:11;;;;;;;;;;;;;;;3.49;100.00;89378.88;5071768;28;19974;-69
2021/12/07 07:21:36;;;;;;;;;;;;;;;3.42;100.00;89386.41;5071974;28;19920;-70
2021/12/07 07:24:02;;;;;;;;;;;;;;;3.39;100.00;89379.13;5072140;28;19916;-69
2021/12/07 07:26:28;;;;;;;;;;;;;;;3.38;100.00;89385.47;5071669;28;19917;-69
2021/12/07 07:28:54;;;;;;;;;;;;;;;3.37;100.00;89385.78;5072003;28;19920;-69
2021/12/07 07:31:19;;;;;;;;;;;;;;;3.32;100.00;89384.06;5072078;28;19920;-69
2021/12/07 07:33:44;;;;;;;;;;;;;;;3.37;100.00;89385.78;5071285;28;20007;-69
2021/12/07 07:36:10;;;;;;;;;;;;;;;3.35;100.00;89382.69;5071820;28;20015;-69
2021/12/07 07:38:35;;;;;;;;;;;;;;;3.40;100.00;89385.16;5071791;28;19917;-70
2021/12/07 07:41:01;;;;;;;;;;;;;;;3.37;100.00;89380.50;5071452;28;19924;-69
2021/12/07 07:43:26;;;;;;;;;;;;;;;3.28;100.00;89377.84;5071629;28;20416;-69
2021/12/07 07:45:52;;;;;;;;;;;;;;;3.09;100.00;89374.66;5071377;28;19921;-70
2021/12/07 07:48:19;;;;;;;;;;;;;;;2.99;100.00;89373.03;5071396;28;19917;-69
2021/12/07 07:50:45;;;;;;;;;;;;;;;2.92;100.00;89370.09;5071692;28;19921;-69
2021/12/07 07:53:10;;;;;;;;;;;;;;;2.90;100.00;89372.25;5071665;28;19920;-69
2021/12/07 07:55:38;;;;;;;;;;;;;;;2.92;100.00;89365.59;5071136;28;20007;-69
2021/12/07 07:58:04;;;;;;;;;;;;;;;3.08;100.00;89376.50;5071274;28;19916;-69
2021/12/07 08:00:29;;;;;;;;;;;;;;;3.10;100.00;89378.84;5071673;28;19959;-69
2021/12/07 08:02:55;;;;;;;;;;;;;;;3.13;100.00;89372.97;5070840;28;20460;-69
2021/12/07 08:05:21;;;;;;;;;;;;;;;3.07;100.00;89388.09;5071439;28;19916;-69
2021/12/07 08:07:50;;;;;;;;;;;;;;;3.02;100.00;89387.47;5071408;28;19916;-68
2021/12/07 08:10:17;;;;;;;;;;;;;;;3.00;100.00;89393.00;5070823;28;19924;-69
2021/12/07 08:12:43;;;;;;;;;;;;;;;3.02;100.00;89380.34;5071428;28;19916;-69
2021/12/07 08:15:08;;;;;;;;;;;;;;;2.89;100.00;89386.44;5071543;28;19946;-69
2021/12/07 08:17:34;;;;;;;;;;;;;;;2.89;100.00;89394.31;5070828;28;19921;-69
2021/12/07 08:20:00;;;;;;;;;;;;;;;2.94;100.00;89402.84;5071494;28;19974;-69
2021/12/07 08:22:28;;;;;;;;;;;;;;;2.99;100.00;89402.72;5071046;28;20310;-69
2021/12/07 08:24:53;;;;;;;;;;;;;;;3.03;100.00;89404.75;5071068;28;19920;-70
2021/12/07 08:27:18;;;;;;;;;;;;;;;2.98;100.00;89401.16;5071131;28;20416;-69
2021/12/07 08:29:44;;;;;;;;;;;;;;;2.94;100.00;89407.31;5071387;28;19920;-69
2021/12/07 08:32:09;;;;;;;;;;;;;;;2.95;100.00;89404.41;5071094;28;20136;-69
2021/12/07 08:34:35;;;;;;;;;;;;;;;2.88;100.00;89408.53;5071854;28;20007;-70
2021/12/07 08:37:00;;;;;;;;;;;;;;;2.66;100.00;89410.06;5076302;28;19924;-70
2021/12/07 08:39:25;;;;;;;;;;;;;;;2.73;100.00;89420.16;5075240;28;19917;-70
2021/12/07 08:41:51;;;;;;;;;;;;;;;2.90;100.00;89412.41;5075656;28;19955;-69
2021/12/07 08:44:16;;;;;;;;;;;;;;;3.05;100.00;89419.16;5071635;28;19921;-69
2021/12/07 08:46:42;;;;;;;;;;;;;;;3.06;100.00;89420.69;5070430;28;19920;-69
2021/12/07 08:49:07;;;;;;;;;;;;;;;2.99;100.00;89425.56;5071298;28;19917;-69
2021/12/07 08:51:33;;;;;;;;;;;;;;;2.83;100.00;89425.16;5071059;28;20291;-69
2021/12/07 08:54:19;;;;;;;;;;;;;;;2.70;100.00;89424.16;5071961;28;19927;-69
2021/12/07 08:59:44;;;;;;;;;;;;;;;2.96;100.00;89418.31;5074916;28;19923;-69
2021/12/07 09:02:15;;;;;;;;;;;;;;;2.96;100.00;89416.44;5073056;28;20317;-69
2021/12/07 09:04:40;;;;;;;;;;;;;;;3.01;100.00;89410.31;5074805;28;19985;-70
2021/12/07 09:07:06;;;;;;;;;;;;;;;2.91;100.00;89406.06;5074773;28;19921;-69
2021/12/07 09:09:32;;;;;;;;;;;;;;;2.83;100.00;89403.38;5074238;28;20378;-69
2021/12/07 09:11:58;;;;;;;;;;;;;;;2.87;100.00;89404.34;5076285;28;19918;-69
2021/12/07 09:14:24;;;;;;;;;;;;;;;2.94;100.00;89400.22;5083340;28;19916;-69
2021/12/07 09:16:50;;;;;;;;;;;;;;;3.11;100.00;89398.78;5074574;28;19924;-69
2021/12/07 09:19:15;;;;;;;;;;;;;;;3.00;100.00;89390.38;5074586;28;20313;-69
2021/12/07 09:21:41;;;;;;;;;;;;;;;2.91;100.00;89397.44;5074516;28;19917;-69
2021/12/07 09:24:10;;;;;;;;;;;;;;;2.97;100.00;89401.47;5073806;28;19920;-69
2021/12/07 09:26:36;;;;;;;;;;;;;;;3.05;100.00;89399.97;5074361;28;19916;-70
2021/12/07 09:29:05;;;;;;;;;;;;;;;3.17;100.00;89387.84;5074442;28;19917;-70
2021/12/07 09:31:30;;;;;;;;;;;;;;;3.24;100.00;89393.44;5074138;28;20303;-70
2021/12/07 09:33:56;;;;;;;;;;;;;;;3.17;100.00;89393.09;5074370;28;20011;-70
2021/12/07 09:36:22;;;;;;;;;;;;;;;3.17;100.00;89387.84;5073986;28;19920;-70
2021/12/07 09:38:47;;;;;;;;;;;;;;;3.15;100.00;89395.22;5055782;28;19927;-70
2021/12/07 09:41:13;;;;;;;;;;;;;;;2.90;100.00;89394.03;5074180;28;19952;-70
2021/12/07 09:43:39;;;;;;;;;;;;;;;2.76;100.00;89397.78;5074222;28;20370;-70
2021/12/07 09:46:05;;;;;;;;;;;;;;;2.87;100.00;89393.84;5073647;28;19920;-70
2021/12/07 09:48:31;;;;;;;;;;;;;;;2.82;100.00;89388.69;5073919;28;19990;-70
2021/12/07 09:50:56;;;;;;;;;;;;;;;2.95;100.00;89395.75;5073922;28;20398;-70
2021/12/07 09:53:23;;;;;;;;;;;;;;;2.93;100.00;89395.28;5073477;28;19917;-70
2021/12/07 09:55:48;;;;;;;;;;;;;;;2.94;100.00;89396.81;5073911;28;19924;-70
2021/12/07 09:58:15;;;;;;;;;;;;;;;2.93;100.00;89388.16;5073764;28;19921;-70
2021/12/07 10:00:40;;;;;;;;;;;;;;;2.97;100.00;89389.09;5073438;28;20007;-69
2021/12/07 10:03:05;;;;;;;;;;;;;;;2.84;100.00;89381.31;5073410;28;19999;-69
2021/12/07 10:05:34;;;;;;;;;;;;;;;2.78;100.00;89377.25;5073640;28;20305;-70
2021/12/07 10:08:01;;;;;;;;;;;;;;;2.68;100.00;89375.63;5073341;28;20015;-70
2021/12/07 10:10:31;;;;;;;;;;;;;;;2.56;100.00;89378.81;5073712;28;19916;-70
2021/12/07 10:12:57;;;;;;;;;;;;;;;2.50;100.00;89364.25;5073619;28;19916;-70
2021/12/07 10:15:23;;;;;;;;;;;;;;;2.45;100.00;89363.59;5072787;28;19927;-70
2021/12/07 10:18:27;;;;;;;;;;;;;;;2.48;100.00;89366.41;5073546;28;19917;-70
2021/12/07 10:20:58;;;;;;;;;;;;;;;2.51;100.00;89359.78;5011653;28;19925;-70
2021/12/07 10:23:43;;;;;;;;;;;;;;;2.61;100.00;89362.94;5011126;28;19917;-70
2021/12/07 10:26:14;;;;;;;;;;;;;;;2.65;100.00;89361.25;5050431;28;19921;-70
2021/12/07 10:28:39;;;;;;;;;;;;;;;2.60;100.00;89356.16;5073584;28;20350;-70
2021/12/07 10:31:11;;;;;;;;;;;;;;;2.57;100.00;89358.59;5072849;28;19955;-70
2021/12/07 10:33:38;;;;;;;;;;;;;;;2.59;100.00;89348.56;5073307;28;19923;-70
2021/12/07 10:36:12;;;;;;;;;;;;;;;2.87;100.00;89336.09;5073269;28;19917;-70
2021/12/07 10:38:38;;;;;;;;;;;;;;;2.72;100.00;89333.84;5072247;28;20394;-70
2021/12/07 10:41:11;;;;;;;;;;;;;;;2.76;100.00;89337.41;5073118;28;20003;-70
2021/12/07 10:43:44;;;;;;;;;;;;;;;2.78;100.00;89345.75;5073309;28;20294;-70
2021/12/07 10:46:28;;;;;;;;;;;;;;;2.69;100.00;89345.72;5072467;28;19925;-70
2021/12/07 10:49:07;;;;;;;;;;;;;;;2.56;100.00;89343.94;5072888;28;20003;-70
2021/12/07 10:51:32;;;;;;;;;;;;;;;2.56;100.00;89355.19;5072614;28;19948;-68
2021/12/07 10:53:58;;;;;;;;;;;;;;;2.40;100.00;89354.00;5072409;28;19958;-70
2021/12/07 10:56:34;;;;;;;;;;;;;;;2.34;100.00;89349.94;5072694;28;20354;-70
2021/12/07 10:59:06;;;;;;;;;;;;;;;2.20;100.00;89349.97;5072679;28;19978;-70
2021/12/07 11:01:39;;;;;;;;;;;;;;;2.16;100.00;89351.66;5071885;28;19920;-69
2021/12/07 11:04:17;;;;;;;;;;;;;;;2.21;100.00;89350.75;5072397;28;19927;-68
2021/12/07 11:07:02;;;;;;;;;;;;;;;2.35;100.00;89346.22;5072396;28;19917;-69
2021/12/07 11:09:27;;;;;;;;;;;;;;;2.37;100.00;89344.09;5072500;28;19917;-70
2021/12/07 11:12:08;;;;;;;;;;;;;;;2.21;100.00;89335.81;5072457;28;20011;-68
2021/12/07 11:14:49;;;;;;;;;;;;;;;2.09;100.00;89333.72;5071835;28;19920;-70
2021/12/07 11:17:15;;;;;;;;;;;;;;;2.16;100.00;89338.53;5071388;28;20019;-70
2021/12/07 11:19:41;;;;;;;;;;;;;;;2.29;100.00;89339.56;5054488;28;19920;-70
2021/12/07 11:22:06;;;;;;;;;;;;;;;2.28;100.00;89338.00;5071695;28;19935;-70
2021/12/07 11:24:36;;;;;;;;;;;;;;;2.19;100.00;89345.03;5071972;28;19920;-70
2021/12/07 11:30:01;;;;;;;;;;;;;;;2.24;100.00;89339.69;5071357;28;19955;-70
2021/12/07 11:32:27;;;;;;;;;;;;;;;2.66;100.00;89339.19;5072124;28;19921;-70
2021/12/07 11:34:53;;;;;;;;;;;;;;;2.69;100.00;89346.50;5071972;28;19923;-70
2021/12/07 11:37:22;;;;;;;;;;;;;;;2.54;100.00;89352.09;5071424;28;20305;-70
2021/12/07 11:39:50;;;;;;;;;;;;;;;2.31;100.00;89343.44;5054309;28;20283;-70
2021/12/07 11:42:24;;;;;;;;;;;;;;;2.07;100.00;89346.34;5071628;28;19917;-70
2021/12/07 11:44:53;;;;;;;;;;;;;;;2.13;100.00;89338.34;5071355;28;20390;-70
2021/12/07 11:47:26;;;;;;;;;;;;;;;2.22;100.00;89331.34;5071672;28;20448;-70
2021/12/07 11:49:52;;;;;;;;;;;;;;;2.28;100.00;89325.66;5071805;28;19922;-70
2021/12/07 11:52:18;;;;;;;;;;;;;;;2.15;100.00;89323.09;5071373;28;19923;-70
2021/12/07 11:54:43;;;;;;;;;;;;;;;1.90;100.00;89332.31;5071474;28;19916;-70
2021/12/07 11:57:12;;;;;;;;;;;;;;;1.78;100.00;89333.59;5071492;28;19920;-70
2021/12/07 11:59:38;;;;;;;;;;;;;;;1.60;100.00;89336.34;5071270;28;19920;-70
2021/12/07 12:02:03;;;;;;;;;;;;;;;1.70;100.00;89336.13;5071431;28;19920;-70
2021/12/07 12:04:29;;;;;;;;;;;;;;;1.87;100.00;89323.16;5071581;28;19920;-71
2021/12/07 12:06:56;;;;;;;;;;;;;;;1.86;100.00;89319.00;5070842;28;19977;-70
2021/12/07 12:09:22;;;;;;;;;;;;;;;1.89;100.00;89315.78;5071736;28;20372;-70
2021/12/07 12:11:48;;;;;;;;;;;;;;;1.81;100.00;89303.41;5071657;28;19943;-69
2021/12/07 12:14:16;;;;;;;;;;;;;;;1.89;100.00;89307.16;5071104;28;20457;-70
2021/12/07 12:16:45;;;;;;;;;;;;;;;1.69;100.00;89303.91;5071472;28;20015;-70
2021/12/07 12:19:30;;;;;;;;;;;;;;;1.50;100.00;89306.66;5076731;28;19916;-70
2021/12/07 12:21:59;;;;;;;;;;;;;;;1.56;100.00;89317.03;5067901;28;20309;-70
2021/12/07 12:24:48;;;;;;;;;;;;;;;1.72;100.00;89328.75;5071523;28;20003;-70
2021/12/07 12:27:17;;;;;;;;;;;;;;;1.84;100.00;89326.38;5071578;28;19916;-70
2021/12/07 12:29:45;;;;;;;;;;;;;;;1.71;100.00;89337.69;5073357;28;19939;-70
2021/12/07 12:32:10;;;;;;;;;;;;;;;1.45;100.00;89330.34;5075384;28;19951;-70
2021/12/07 12:34:37;;;;;;;;;;;;;;;1.37;100.00;89336.25;5075536;28;19960;-70
2021/12/07 12:37:14;;;;;;;;;;;;;;;1.46;100.00;89333.75;5074840;28;20465;-70
2021/12/07 12:39:40;;;;;;;;;;;;;;;1.46;100.00;89337.13;5075519;28;19921;-70
2021/12/07 12:42:05;;;;;;;;;;;;;;;1.59;100.00;89334.81;5075386;28;19917;-70
2021/12/07 12:44:33;;;;;;;;;;;;;;;1.74;100.00;89332.66;5074727;28;19921;-70
2021/12/07 12:46:59;;;;;;;;;;;;;;;1.73;100.00;89340.78;5075065;28;19916;-69
2021/12/07 12:49:35;;;;;;;;;;;;;;;1.67;100.00;89339.34;5077480;28;19947;-71
2021/12/07 12:52:00;;;;;;;;;;;;;;;1.71;100.00;89343.69;5089003;28;20337;-70
2021/12/07 12:54:26;;;;;;;;;;;;;;;1.67;100.00;89337.50;5095397;28;19981;-70
2021/12/07 12:56:51;;;;;;;;;;;;;;;1.60;100.00;89338.97;5094995;28;19926;-70
2021/12/07 12:59:18;;;;;;;;;;;;;;;1.65;100.00;89339.63;5076637;28;19924;-70
2021/12/07 13:01:45;;;;;;;;;;;;;;;1.58;100.00;89338.47;5095023;28;20374;-70
2021/12/07 13:04:13;;;;;;;;;;;;;;;1.54;100.00;89343.53;5095265;28;19924;-70
2021/12/07 13:06:50;;;;;;;;;;;;;;;1.43;100.00;89342.97;5094622;28;20048;-70
2021/12/07 13:09:18;;;;;;;;;;;;;;;1.62;100.00;89344.69;5094748;28;20446;-70
2021/12/07 13:11:45;;;;;;;;;;;;;;;1.62;100.00;89352.56;5095063;28;19916;-70
2021/12/07 13:14:11;;;;;;;;;;;;;;;1.51;100.00;89344.13;5094684;28;19924;-70
2021/12/07 13:16:38;;;;;;;;;;;;;;;1.44;100.00;89344.53;5094833;28;19965;-70
2021/12/07 13:19:05;;;;;;;;;;;;;;;1.53;100.00;89351.69;5094780;28;19916;-71
2021/12/07 13:21:35;;;;;;;;;;;;;;;1.42;100.00;89354.53;5094235;28;20439;-70
2021/12/07 13:24:03;;;;;;;;;;;;;;;1.45;100.00;89351.31;5094883;28;19916;-71
2021/12/07 13:26:48;;;;;;;;;;;;;;;1.47;100.00;89354.41;5094645;28;19917;-70
2021/12/07 13:29:21;;;;;;;;;;;;;;;1.33;100.00;89353.63;5093535;28;20019;-70
2021/12/07 13:31:51;;;;;;;;;;;;;;;1.37;100.00;89359.84;5094581;28;20321;-70
2021/12/07 13:34:18;;;;;;;;;;;;;;;1.27;100.00;89357.44;5094506;28;20398;-71
2021/12/07 13:36:46;;;;;;;;;;;;;;;1.13;100.00;89357.44;5094051;28;19920;-70
2021/12/07 13:39:19;;;;;;;;;;;;;;;1.12;100.00;89365.56;5094099;28;19920;-70
2021/12/07 13:42:06;;;;;;;;;;;;;;;1.08;100.00;89367.97;5094566;28;19920;-70
2021/12/07 13:44:34;;;;;;;;;;;;;;;0.96;100.00;89356.44;5093647;28;20396;-70
2021/12/07 13:47:02;;;;;;;;;;;;;;;0.96;100.00;89362.47;5094388;28;20411;-70
2021/12/07 13:49:29;;;;;;;;;;;;;;;0.86;100.00;89360.78;5094341;28;19923;-70
2021/12/07 13:51:55;;;;;;;;;;;;;;;0.73;100.00;89366.00;5093873;28;19927;-70
2021/12/07 13:54:21;;;;;;;;;;;;;;;0.77;100.00;89372.19;5094215;28;19920;-70
2021/12/07 13:56:48;;;;;;;;;;;;;;;0.68;100.00;89379.94;5093851;28;20380;-70
2021/12/07 13:59:15;;;;;;;;;;;;;;;0.60;100.00;89377.97;5093626;28;19947;-69
2021/12/07 14:01:49;;;;;;;;;;;;;;;0.58;100.00;89375.63;5093499;28;19927;-69
2021/12/07 14:04:15;;;;;;;;;;;;;;;0.63;100.00;89382.63;5076116;28;19990;-71
2021/12/07 14:06:44;;;;;;;;;;;;;;;0.61;100.00;89387.38;5093534;28;19959;-70
2021/12/07 14:09:10;;;;;;;;;;;;;;;0.62;100.00;89381.06;5093639;28;19916;-70
2021/12/07 14:11:37;;;;;;;;;;;;;;;0.66;100.00;89387.31;5093963;28;19916;-70
2021/12/07 14:14:06;;;;;;;;;;;;;;;0.61;100.00;89384.75;5093458;28;19916;-70
2021/12/07 14:16:32;;;;;;;;;;;;;;;0.64;100.00;89389.44;5093686;28;19927;-70
2021/12/07 14:18:57;;;;;;;;;;;;;;;0.49;100.00;89385.22;5093685;28;20313;-70
2021/12/07 14:21:23;;;;;;;;;;;;;;;0.49;100.00;89379.22;5093239;28;20393;-72
2021/12/07 14:23:57;;;;;;;;;;;;;;;0.46;100.00;89390.22;5093448;28;20314;-70
2021/12/07 14:26:24;;;;;;;;;;;;;;;0.49;100.00;89389.69;5093398;28;19916;-70
2021/12/07 14:28:51;;;;;;;;;;;;;;;0.41;100.00;89395.53;5093043;28;19926;-70
2021/12/07 14:31:27;;;;;;;;;;;;;;;0.47;100.00;89402.25;5093429;28;19959;-70
2021/12/07 14:33:55;;;;;;;;;;;;;;;0.44;100.00;89390.50;5093284;28;19969;-69
2021/12/07 14:36:31;;;;;;;;;;;;;;;0.51;100.00;89393.56;5092701;28;20409;-69
2021/12/07 14:38:58;;;;;;;;;;;;;;;0.34;100.00;89401.16;5093348;28;19947;-70